Terminal Aerodrome Forecast
Issued by NWS

Home | Current Version | Previous Version | Text Only | Print | Product List | Glossary On
Versions: 1 2 3 4 5 6 7 8 9 10 11 12 13 14 15 16 17 18 19 20 21 22 23 24 25 26 27 28 29 30 31 32 33
000
FTUS41 KBOX 302320
TAFHYA
TAF
KHYA 302320Z 3100/3124 22016G27KT P6SM -RA BKN080
     FM310200 22013G24KT 3SM -RA BR BKN015 OVC025
     FM310300 24009KT 3SM -RA BR SCT003 BKN008
     FM310700 25009KT 6SM BR VCSH SCT008 BKN060
     FM310900 26006KT P6SM VCSH BKN060
     FM311100 27005KT P6SM SCT060=

USA.gov is the U.S. government's official web portal to all federal, state and local government web resources and services.